sensor_id;sensor_type;location;lat;lon;timestamp;P1;P2;P0
65574;PMS5003;52216;54.942;73.394;2023-03-22T00:02:01;1.00;0.25;0.00
65574;PMS5003;52216;54.942;73.394;2023-03-22T00:05:16;1.00;1.00;0.00
65574;PMS5003;52216;54.942;73.394;2023-03-22T00:08:29;2.00;1.00;0.00
65574;PMS5003;52216;54.942;73.394;2023-03-22T00:11:37;1.00;1.00;0.00
65574;PMS5003;52216;54.942;73.394;2023-03-22T00:14:41;0.50;0.00;0.00
65574;PMS5003;52216;54.942;73.394;2023-03-22T00:17:44;0.00;0.00;0.00
65574;PMS5003;52216;54.942;73.394;2023-03-22T00:20:48;0.00;0.00;0.00
65574;PMS5003;52216;54.942;73.394;2023-03-22T00:23:51;1.00;1.00;0.00
65574;PMS5003;52216;54.942;73.394;2023-03-22T00:26:54;0.00;0.00;0.00
65574;PMS5003;52216;54.942;73.394;2023-03-22T00:29:57;0.50;0.50;0.00
65574;PMS5003;52216;54.942;73.394;2023-03-22T00:33:01;1.00;1.00;0.00
65574;PMS5003;52216;54.942;73.394;2023-03-22T00:36:08;0.00;0.00;0.00
65574;PMS5003;52216;54.942;73.394;2023-03-22T00:39:12;1.50;0.00;0.00
65574;PMS5003;52216;54.942;73.394;2023-03-22T00:42:15;0.00;0.00;0.00
65574;PMS5003;52216;54.942;73.394;2023-03-22T00:45:18;2.00;1.00;0.00
65574;PMS5003;52216;54.942;73.394;2023-03-22T00:48:28;2.00;2.00;0.00
65574;PMS5003;52216;54.942;73.394;2023-03-22T00:51:31;2.00;2.00;0.00
65574;PMS5003;52216;54.942;73.394;2023-03-22T00:54:39;4.00;3.00;0.00
65574;PMS5003;52216;54.942;73.394;2023-03-22T00:57:43;4.25;4.00;0.00
65574;PMS5003;52216;54.942;73.394;2023-03-22T01:00:46;3.25;2.00;0.00
65574;PMS5003;52216;54.942;73.394;2023-03-22T01:03:50;3.00;2.00;0.00
65574;PMS5003;52216;54.942;73.394;2023-03-22T01:06:53;2.50;2.00;0.00
65574;PMS5003;52216;54.942;73.394;2023-03-22T01:10:01;2.00;2.00;0.00
65574;PMS5003;52216;54.942;73.394;2023-03-22T01:13:16;2.00;2.00;0.00
65574;PMS5003;52216;54.942;73.394;2023-03-22T01:16:20;2.00;2.00;0.00
65574;PMS5003;52216;54.942;73.394;2023-03-22T01:19:28;4.00;3.00;0.75
65574;PMS5003;52216;54.942;73.394;2023-03-22T01:22:32;2.00;2.00;0.00
65574;PMS5003;52216;54.942;73.394;2023-03-22T01:25:40;2.75;2.00;0.00
65574;PMS5003;52216;54.942;73.394;2023-03-22T01:28:43;2.00;2.00;0.00
65574;PMS5003;52216;54.942;73.394;2023-03-22T01:31:47;2.00;2.00;0.00
65574;PMS5003;52216;54.942;73.394;2023-03-22T01:34:50;2.00;2.00;0.00
65574;PMS5003;52216;54.942;73.394;2023-03-22T01:37:55;2.00;2.00;0.00
65574;PMS5003;52216;54.942;73.394;2023-03-22T01:41:09;4.00;3.00;0.00
65574;PMS5003;52216;54.942;73.394;2023-03-22T01:44:17;2.00;2.00;0.00
65574;PMS5003;52216;54.942;73.394;2023-03-22T01:47:33;5.00;3.75;0.00
65574;PMS5003;52216;54.942;73.394;2023-03-22T01:50:48;3.88;3.00;1.13
65574;PMS5003;52216;54.942;73.394;2023-03-22T01:53:54;3.00;2.00;1.00
65574;PMS5003;52216;54.942;73.394;2023-03-22T01:56:58;2.00;2.00;1.00
65574;PMS5003;52216;54.942;73.394;2023-03-22T02:00:11;5.00;5.00;1.00
65574;PMS5003;52216;54.942;73.394;2023-03-22T02:03:29;5.00;4.00;1.00
65574;PMS5003;52216;54.942;73.394;2023-03-22T02:06:37;4.25;4.25;0.00
65574;PMS5003;52216;54.942;73.394;2023-03-22T02:09:46;3.50;2.25;0.00
65574;PMS5003;52216;54.942;73.394;2023-03-22T02:19:56;3.50;3.25;1.00
65574;PMS5003;52216;54.942;73.394;2023-03-22T02:23:18;3.50;3.00;0.00
65574;PMS5003;52216;54.942;73.394;2023-03-22T02:39:34;5.00;4.75;1.00
65574;PMS5003;52216;54.942;73.394;2023-03-22T02:42:43;5.67;5.00;2.00
65574;PMS5003;52216;54.942;73.394;2023-03-22T02:45:52;5.25;5.00;2.00
65574;PMS5003;52216;54.942;73.394;2023-03-22T02:49:03;6.00;6.00;2.00
65574;PMS5003;52216;54.942;73.394;2023-03-22T02:58:32;8.00;6.00;3.00
65574;PMS5003;52216;54.942;73.394;2023-03-22T03:01:44;5.75;5.00;2.00
65574;PMS5003;52216;54.942;73.394;2023-03-22T03:04:53;5.00;4.00;2.00
65574;PMS5003;52216;54.942;73.394;2023-03-22T03:08:05;6.00;5.00;2.00
65574;PMS5003;52216;54.942;73.394;2023-03-22T03:11:12;4.50;3.00;1.00
65574;PMS5003;52216;54.942;73.394;2023-03-22T03:14:20;5.00;4.50;2.00
65574;PMS5003;52216;54.942;73.394;2023-03-22T03:21:01;5.00;4.75;2.00
65574;PMS5003;52216;54.942;73.394;2023-03-22T03:24:28;5.75;5.00;2.00
65574;PMS5003;52216;54.942;73.394;2023-03-22T03:27:43;5.00;3.50;1.00
65574;PMS5003;52216;54.942;73.394;2023-03-22T03:31:04;5.25;4.00;1.00
65574;PMS5003;52216;54.942;73.394;2023-03-22T03:34:18;4.25;4.00;2.00
65574;PMS5003;52216;54.942;73.394;2023-03-22T03:37:28;4.75;4.75;2.50
65574;PMS5003;52216;54.942;73.394;2023-03-22T03:40:34;4.00;3.00;1.00
65574;PMS5003;52216;54.942;73.394;2023-03-22T03:43:41;6.00;4.00;2.00
65574;PMS5003;52216;54.942;73.394;2023-03-22T03:47:08;6.00;5.50;2.00
65574;PMS5003;52216;54.942;73.394;2023-03-22T03:50:23;4.00;3.00;1.00
65574;PMS5003;52216;54.942;73.394;2023-03-22T03:53:32;5.00;3.75;1.00
65574;PMS5003;52216;54.942;73.394;2023-03-22T03:56:36;5.50;4.00;1.00
65574;PMS5003;52216;54.942;73.394;2023-03-22T03:59:39;5.75;4.25;1.00
65574;PMS5003;52216;54.942;73.394;2023-03-22T04:02:52;4.00;3.00;1.00
65574;PMS5003;52216;54.942;73.394;2023-03-22T04:06:27;6.00;4.25;1.00
65574;PMS5003;52216;54.942;73.394;2023-03-22T04:09:46;4.00;4.00;1.00
65574;PMS5003;52216;54.942;73.394;2023-03-22T04:12:53;5.00;5.00;2.00
65574;PMS5003;52216;54.942;73.394;2023-03-22T04:15:56;6.00;4.00;2.00
65574;PMS5003;52216;54.942;73.394;2023-03-22T04:19:10;6.00;4.00;2.00
65574;PMS5003;52216;54.942;73.394;2023-03-22T04:22:14;7.00;6.00;3.00
65574;PMS5003;52216;54.942;73.394;2023-03-22T04:25:21;6.00;6.00;3.00
65574;PMS5003;52216;54.942;73.394;2023-03-22T04:28:46;5.00;5.00;2.00
65574;PMS5003;52216;54.942;73.394;2023-03-22T04:31:57;5.00;4.00;2.00
65574;PMS5003;52216;54.942;73.394;2023-03-22T04:35:07;6.00;6.00;2.00
65574;PMS5003;52216;54.942;73.394;2023-03-22T04:38:11;9.25;6.75;3.25
65574;PMS5003;52216;54.942;73.394;2023-03-22T04:41:22;11.50;10.00;4.75
65574;PMS5003;52216;54.942;73.394;2023-03-22T04:44:27;14.00;12.50;5.00
65574;PMS5003;52216;54.942;73.394;2023-03-22T04:47:30;15.00;12.00;3.00
65574;PMS5003;52216;54.942;73.394;2023-03-22T04:50:39;14.00;10.50;4.00
65574;PMS5003;52216;54.942;73.394;2023-03-22T04:53:43;11.00;9.00;4.00
65574;PMS5003;52216;54.942;73.394;2023-03-22T04:56:50;7.50;6.00;3.00
65574;PMS5003;52216;54.942;73.394;2023-03-22T04:59:56;6.00;6.00;3.00
65574;PMS5003;52216;54.942;73.394;2023-03-22T05:02:57;6.00;5.00;2.00
65574;PMS5003;52216;54.942;73.394;2023-03-22T05:06:14;6.00;5.00;3.00
65574;PMS5003;52216;54.942;73.394;2023-03-22T05:09:44;7.00;5.00;2.00
65574;PMS5003;52216;54.942;73.394;2023-03-22T05:12:58;3.50;3.25;3.00
65574;PMS5003;52216;54.942;73.394;2023-03-22T05:16:16;3.00;2.25;1.00
65574;PMS5003;52216;54.942;73.394;2023-03-22T05:19:30;3.50;3.50;3.00
65574;PMS5003;52216;54.942;73.394;2023-03-22T05:22:39;5.00;3.00;2.00
65574;PMS5003;52216;54.942;73.394;2023-03-22T05:25:43;3.50;3.00;1.00
65574;PMS5003;52216;54.942;73.394;2023-03-22T05:29:01;3.75;3.00;1.00
65574;PMS5003;52216;54.942;73.394;2023-03-22T05:32:32;3.33;3.33;1.00
65574;PMS5003;52216;54.942;73.394;2023-03-22T05:35:40;3.75;3.00;2.00
65574;PMS5003;52216;54.942;73.394;2023-03-22T05:38:45;3.00;3.00;2.00
65574;PMS5003;52216;54.942;73.394;2023-03-22T05:41:48;3.00;3.00;1.00
65574;PMS5003;52216;54.942;73.394;2023-03-22T05:45:01;4.00;3.00;1.00
65574;PMS5003;52216;54.942;73.394;2023-03-22T05:48:06;5.00;4.25;2.00
65574;PMS5003;52216;54.942;73.394;2023-03-22T05:51:11;5.00;5.00;2.00
65574;PMS5003;52216;54.942;73.394;2023-03-22T05:54:26;7.50;6.75;4.00
65574;PMS5003;52216;54.942;73.394;2023-03-22T05:57:29;9.00;7.00;3.00
65574;PMS5003;52216;54.942;73.394;2023-03-22T06:00:38;6.25;5.00;3.00
65574;PMS5003;52216;54.942;73.394;2023-03-22T06:04:04;7.00;6.50;3.00
65574;PMS5003;52216;54.942;73.394;2023-03-22T06:07:16;5.25;4.25;3.00
65574;PMS5003;52216;54.942;73.394;2023-03-22T06:10:23;6.00;5.00;2.00
65574;PMS5003;52216;54.942;73.394;2023-03-22T06:13:29;5.75;4.50;1.00
65574;PMS5003;52216;54.942;73.394;2023-03-22T06:16:35;6.75;5.00;3.00
65574;PMS5003;52216;54.942;73.394;2023-03-22T06:19:39;4.00;3.25;1.00
65574;PMS5003;52216;54.942;73.394;2023-03-22T06:22:44;3.25;3.25;2.00
65574;PMS5003;52216;54.942;73.394;2023-03-22T06:25:50;6.00;6.00;2.00
65574;PMS5003;52216;54.942;73.394;2023-03-22T06:28:54;6.00;6.00;2.75
65574;PMS5003;52216;54.942;73.394;2023-03-22T06:31:58;5.00;5.00;2.25
65574;PMS5003;52216;54.942;73.394;2023-03-22T06:35:01;5.00;3.25;2.00
65574;PMS5003;52216;54.942;73.394;2023-03-22T06:38:32;4.50;4.00;1.50
65574;PMS5003;52216;54.942;73.394;2023-03-22T06:41:34;4.75;4.00;3.00
65574;PMS5003;52216;54.942;73.394;2023-03-22T06:44:47;5.00;4.00;1.00
65574;PMS5003;52216;54.942;73.394;2023-03-22T06:48:36;3.50;3.50;1.00
65574;PMS5003;52216;54.942;73.394;2023-03-22T06:51:43;5.00;4.00;1.00
65574;PMS5003;52216;54.942;73.394;2023-03-22T06:54:50;3.75;3.75;2.00
65574;PMS5003;52216;54.942;73.394;2023-03-22T06:57:53;6.50;6.00;3.00
65574;PMS5003;52216;54.942;73.394;2023-03-22T07:00:57;5.00;4.00;1.00
65574;PMS5003;52216;54.942;73.394;2023-03-22T07:04:02;3.75;3.75;0.00
65574;PMS5003;52216;54.942;73.394;2023-03-22T07:07:05;4.25;4.00;1.00
65574;PMS5003;52216;54.942;73.394;2023-03-22T07:10:11;3.75;3.75;2.00
65574;PMS5003;52216;54.942;73.394;2023-03-22T07:13:17;2.75;2.00;1.00
65574;PMS5003;52216;54.942;73.394;2023-03-22T07:16:22;5.50;4.00;2.00
65574;PMS5003;52216;54.942;73.394;2023-03-22T07:19:41;4.75;4.00;2.00
65574;PMS5003;52216;54.942;73.394;2023-03-22T07:22:46;4.00;4.00;0.00
65574;PMS5003;52216;54.942;73.394;2023-03-22T07:25:48;3.00;2.00;0.00
65574;PMS5003;52216;54.942;73.394;2023-03-22T07:28:59;3.25;2.25;0.00
65574;PMS5003;52216;54.942;73.394;2023-03-22T07:32:05;3.00;3.00;1.00
65574;PMS5003;52216;54.942;73.394;2023-03-22T07:35:27;3.00;3.00;2.00
65574;PMS5003;52216;54.942;73.394;2023-03-22T07:38:31;2.75;2.25;0.00
65574;PMS5003;52216;54.942;73.394;2023-03-22T07:41:34;3.25;3.25;1.00
65574;PMS5003;52216;54.942;73.394;2023-03-22T07:45:06;2.00;2.00;0.00
65574;PMS5003;52216;54.942;73.394;2023-03-22T07:48:14;3.00;3.00;0.00
65574;PMS5003;52216;54.942;73.394;2023-03-22T07:51:47;2.75;2.00;0.00
65574;PMS5003;52216;54.942;73.394;2023-03-22T07:55:01;2.00;0.00;0.00
65574;PMS5003;52216;54.942;73.394;2023-03-22T07:58:16;1.00;0.00;0.00
65574;PMS5003;52216;54.942;73.394;2023-03-22T08:01:29;2.00;1.00;0.00
65574;PMS5003;52216;54.942;73.394;2023-03-22T08:04:58;1.00;1.00;0.00
65574;PMS5003;52216;54.942;73.394;2023-03-22T08:08:11;0.00;0.00;0.00
65574;PMS5003;52216;54.942;73.394;2023-03-22T08:11:15;2.00;2.00;0.00
65574;PMS5003;52216;54.942;73.394;2023-03-22T08:14:19;3.00;2.00;0.00
65574;PMS5003;52216;54.942;73.394;2023-03-22T08:17:25;2.00;2.00;0.00
65574;PMS5003;52216;54.942;73.394;2023-03-22T08:20:29;2.00;2.00;0.00
65574;PMS5003;52216;54.942;73.394;2023-03-22T08:23:36;1.00;1.00;0.00
65574;PMS5003;52216;54.942;73.394;2023-03-22T08:27:00;2.00;2.00;0.00
65574;PMS5003;52216;54.942;73.394;2023-03-22T08:30:15;1.50;1.50;0.00
65574;PMS5003;52216;54.942;73.394;2023-03-22T08:33:19;1.00;1.00;0.00
65574;PMS5003;52216;54.942;73.394;2023-03-22T08:36:26;3.00;1.00;0.00
65574;PMS5003;52216;54.942;73.394;2023-03-22T08:39:38;3.00;1.00;0.00
65574;PMS5003;52216;54.942;73.394;2023-03-22T08:43:09;2.00;1.00;0.00
65574;PMS5003;52216;54.942;73.394;2023-03-22T08:46:12;3.00;2.33;0.00
65574;PMS5003;52216;54.942;73.394;2023-03-22T08:49:26;3.00;2.25;0.00
65574;PMS5003;52216;54.942;73.394;2023-03-22T08:52:39;3.00;2.00;0.00
65574;PMS5003;52216;54.942;73.394;2023-03-22T08:55:50;1.00;1.00;0.00
65574;PMS5003;52216;54.942;73.394;2023-03-22T08:59:11;2.00;2.00;0.00
65574;PMS5003;52216;54.942;73.394;2023-03-22T09:02:26;2.00;2.00;0.00
65574;PMS5003;52216;54.942;73.394;2023-03-22T09:05:31;2.00;1.00;0.00
65574;PMS5003;52216;54.942;73.394;2023-03-22T09:08:34;1.00;1.00;0.00
65574;PMS5003;52216;54.942;73.394;2023-03-22T09:11:43;2.00;2.00;0.00
65574;PMS5003;52216;54.942;73.394;2023-03-22T09:14:56;1.00;1.00;0.00
65574;PMS5003;52216;54.942;73.394;2023-03-22T09:18:01;2.00;1.00;0.00
65574;PMS5003;52216;54.942;73.394;2023-03-22T09:21:14;2.00;1.00;0.00
65574;PMS5003;52216;54.942;73.394;2023-03-22T09:24:54;0.67;0.00;0.00
65574;PMS5003;52216;54.942;73.394;2023-03-22T09:27:57;0.00;0.00;0.00
65574;PMS5003;52216;54.942;73.394;2023-03-22T09:31:03;0.00;0.00;0.00
65574;PMS5003;52216;54.942;73.394;2023-03-22T09:34:11;1.50;0.25;0.00
65574;PMS5003;52216;54.942;73.394;2023-03-22T09:37:14;3.00;3.00;0.00
65574;PMS5003;52216;54.942;73.394;2023-03-22T09:40:33;1.00;1.00;0.00
65574;PMS5003;52216;54.942;73.394;2023-03-22T09:43:41;3.00;3.00;0.00
65574;PMS5003;52216;54.942;73.394;2023-03-22T09:46:49;2.00;2.00;0.00
65574;PMS5003;52216;54.942;73.394;2023-03-22T09:49:55;2.00;1.25;0.00
65574;PMS5003;52216;54.942;73.394;2023-03-22T09:53:14;3.00;2.00;0.00
65574;PMS5003;52216;54.942;73.394;2023-03-22T09:56:19;3.00;3.00;0.00
65574;PMS5003;52216;54.942;73.394;2023-03-22T09:59:39;2.00;1.50;0.00
65574;PMS5003;52216;54.942;73.394;2023-03-22T10:02:52;1.00;1.00;0.00
65574;PMS5003;52216;54.942;73.394;2023-03-22T10:12:39;2.00;1.00;0.00
65574;PMS5003;52216;54.942;73.394;2023-03-22T10:15:52;3.00;1.00;0.00
65574;PMS5003;52216;54.942;73.394;2023-03-22T10:19:00;3.00;2.00;0.00
65574;PMS5003;52216;54.942;73.394;2023-03-22T10:22:04;1.00;1.00;0.00
65574;PMS5003;52216;54.942;73.394;2023-03-22T10:25:08;3.00;2.00;0.00
65574;PMS5003;52216;54.942;73.394;2023-03-22T10:28:21;1.50;1.00;0.00
65574;PMS5003;52216;54.942;73.394;2023-03-22T10:31:31;1.75;0.25;0.00
65574;PMS5003;52216;54.942;73.394;2023-03-22T10:34:36;1.50;1.50;0.00
65574;PMS5003;52216;54.942;73.394;2023-03-22T10:37:39;3.00;3.00;0.00
65574;PMS5003;52216;54.942;73.394;2023-03-22T10:40:53;3.00;3.00;0.00
65574;PMS5003;52216;54.942;73.394;2023-03-22T10:43:58;3.00;3.00;0.00
65574;PMS5003;52216;54.942;73.394;2023-03-22T10:47:03;3.00;2.00;0.00
65574;PMS5003;52216;54.942;73.394;2023-03-22T10:50:17;3.00;2.00;1.00
65574;PMS5003;52216;54.942;73.394;2023-03-22T10:53:23;3.00;3.00;1.00
65574;PMS5003;52216;54.942;73.394;2023-03-22T10:56:29;3.25;3.00;1.00
65574;PMS5003;52216;54.942;73.394;2023-03-22T10:59:49;3.50;3.00;1.00
65574;PMS5003;52216;54.942;73.394;2023-03-22T11:02:57;2.00;2.00;1.00
65574;PMS5003;52216;54.942;73.394;2023-03-22T11:06:13;2.00;2.00;1.00
65574;PMS5003;52216;54.942;73.394;2023-03-22T11:09:18;2.00;2.00;0.00
65574;PMS5003;52216;54.942;73.394;2023-03-22T11:12:33;3.00;2.00;0.00
65574;PMS5003;52216;54.942;73.394;2023-03-22T11:15:48;2.50;2.50;0.00
65574;PMS5003;52216;54.942;73.394;2023-03-22T11:18:52;3.00;3.00;1.00
65574;PMS5003;52216;54.942;73.394;2023-03-22T11:21:56;3.00;2.50;0.00
65574;PMS5003;52216;54.942;73.394;2023-03-22T11:25:14;3.00;3.00;0.00
65574;PMS5003;52216;54.942;73.394;2023-03-22T11:28:34;3.00;3.00;0.00
65574;PMS5003;52216;54.942;73.394;2023-03-22T11:38:22;4.00;3.00;0.00
65574;PMS5003;52216;54.942;73.394;2023-03-22T11:41:27;3.25;3.00;0.00
65574;PMS5003;52216;54.942;73.394;2023-03-22T11:44:31;3.00;3.00;0.00
65574;PMS5003;52216;54.942;73.394;2023-03-22T11:47:37;3.00;2.00;0.00
65574;PMS5003;52216;54.942;73.394;2023-03-22T11:50:44;3.00;3.00;0.00
65574;PMS5003;52216;54.942;73.394;2023-03-22T11:53:54;3.00;2.00;0.00
65574;PMS5003;52216;54.942;73.394;2023-03-22T11:57:03;3.00;3.00;1.00
65574;PMS5003;52216;54.942;73.394;2023-03-22T12:00:15;3.00;3.00;0.00
65574;PMS5003;52216;54.942;73.394;2023-03-22T12:03:33;1.25;1.25;0.00
65574;PMS5003;52216;54.942;73.394;2023-03-22T12:06:38;2.00;2.00;0.00
65574;PMS5003;52216;54.942;73.394;2023-03-22T12:12:50;3.00;2.00;0.00
65574;PMS5003;52216;54.942;73.394;2023-03-22T12:16:01;4.00;3.50;0.00
65574;PMS5003;52216;54.942;73.394;2023-03-22T12:22:40;3.00;3.00;0.00
65574;PMS5003;52216;54.942;73.394;2023-03-22T12:25:54;3.00;3.00;1.00
65574;PMS5003;52216;54.942;73.394;2023-03-22T12:32:14;4.00;3.00;0.00
65574;PMS5003;52216;54.942;73.394;2023-03-22T12:35:20;3.00;3.00;0.00
65574;PMS5003;52216;54.942;73.394;2023-03-22T12:38:36;3.00;3.00;0.00
65574;PMS5003;52216;54.942;73.394;2023-03-22T12:41:42;2.75;2.75;0.00
65574;PMS5003;52216;54.942;73.394;2023-03-22T12:44:48;3.00;2.00;0.00
65574;PMS5003;52216;54.942;73.394;2023-03-22T12:47:53;5.00;3.00;0.00
65574;PMS5003;52216;54.942;73.394;2023-03-22T12:50:59;3.00;3.00;0.00
65574;PMS5003;52216;54.942;73.394;2023-03-22T12:54:03;3.00;3.00;0.00
65574;PMS5003;52216;54.942;73.394;2023-03-22T12:57:07;3.00;3.00;0.00
65574;PMS5003;52216;54.942;73.394;2023-03-22T13:00:11;3.00;3.00;0.00
65574;PMS5003;52216;54.942;73.394;2023-03-22T13:06:33;4.50;4.00;0.00
65574;PMS5003;52216;54.942;73.394;2023-03-22T13:14:05;4.00;4.00;2.00
65574;PMS5003;52216;54.942;73.394;2023-03-22T13:17:01;4.00;4.00;1.00
65574;PMS5003;52216;54.942;73.394;2023-03-22T13:23:24;3.00;2.75;0.00
65574;PMS5003;52216;54.942;73.394;2023-03-22T13:26:42;4.50;4.00;1.00
65574;PMS5003;52216;54.942;73.394;2023-03-22T13:29:51;5.00;3.75;1.00
65574;PMS5003;52216;54.942;73.394;2023-03-22T13:36:22;1.75;1.50;0.00
65574;PMS5003;52216;54.942;73.394;2023-03-22T13:39:30;0.50;0.50;0.00
65574;PMS5003;52216;54.942;73.394;2023-03-22T13:43:07;1.50;1.00;0.00
65574;PMS5003;52216;54.942;73.394;2023-03-22T13:50:03;1.00;0.00;0.00
65574;PMS5003;52216;54.942;73.394;2023-03-22T13:53:02;1.00;0.00;0.00
65574;PMS5003;52216;54.942;73.394;2023-03-22T13:56:09;1.00;0.00;0.00
65574;PMS5003;52216;54.942;73.394;2023-03-22T13:59:26;2.40;0.80;0.00
65574;PMS5003;52216;54.942;73.394;2023-03-22T14:02:34;3.00;2.00;0.00
65574;PMS5003;52216;54.942;73.394;2023-03-22T14:05:43;2.00;2.00;0.00
65574;PMS5003;52216;54.942;73.394;2023-03-22T14:08:49;2.00;2.00;0.00
65574;PMS5003;52216;54.942;73.394;2023-03-22T14:11:57;2.00;2.00;0.00
65574;PMS5003;52216;54.942;73.394;2023-03-22T14:15:02;2.00;2.00;0.00
65574;PMS5003;52216;54.942;73.394;2023-03-22T14:18:28;2.00;2.00;0.00
65574;PMS5003;52216;54.942;73.394;2023-03-22T14:21:37;2.00;2.00;0.00
65574;PMS5003;52216;54.942;73.394;2023-03-22T14:24:45;2.00;1.00;0.00
65574;PMS5003;52216;54.942;73.394;2023-03-22T14:27:49;3.00;2.50;0.00
65574;PMS5003;52216;54.942;73.394;2023-03-22T14:30:53;3.50;2.00;0.00
65574;PMS5003;52216;54.942;73.394;2023-03-22T14:34:02;2.00;1.00;0.00
65574;PMS5003;52216;54.942;73.394;2023-03-22T14:37:16;0.00;0.00;0.00
65574;PMS5003;52216;54.942;73.394;2023-03-22T14:40:30;2.00;2.00;0.00
65574;PMS5003;52216;54.942;73.394;2023-03-22T14:43:33;1.25;1.25;0.00
65574;PMS5003;52216;54.942;73.394;2023-03-22T14:46:37;1.00;1.00;0.00
65574;PMS5003;52216;54.942;73.394;2023-03-22T14:49:41;2.00;2.00;0.00
65574;PMS5003;52216;54.942;73.394;2023-03-22T14:52:46;1.00;1.00;0.00
65574;PMS5003;52216;54.942;73.394;2023-03-22T14:56:11;2.00;2.00;0.00
65574;PMS5003;52216;54.942;73.394;2023-03-22T14:59:18;2.25;2.00;0.00
65574;PMS5003;52216;54.942;73.394;2023-03-22T15:02:28;3.00;2.00;0.00
65574;PMS5003;52216;54.942;73.394;2023-03-22T15:05:37;0.00;0.00;0.00
65574;PMS5003;52216;54.942;73.394;2023-03-22T15:08:43;0.00;0.00;0.00
65574;PMS5003;52216;54.942;73.394;2023-03-22T15:11:48;0.25;0.00;0.00
65574;PMS5003;52216;54.942;73.394;2023-03-22T15:14:52;2.00;1.00;0.00
65574;PMS5003;52216;54.942;73.394;2023-03-22T15:18:06;2.00;0.00;0.00
65574;PMS5003;52216;54.942;73.394;2023-03-22T15:21:10;2.00;1.00;0.00
65574;PMS5003;52216;54.942;73.394;2023-03-22T15:24:34;1.00;1.00;0.00
65574;PMS5003;52216;54.942;73.394;2023-03-22T15:27:38;1.00;1.00;0.00
65574;PMS5003;52216;54.942;73.394;2023-03-22T15:30:45;2.00;2.00;0.00
65574;PMS5003;52216;54.942;73.394;2023-03-22T15:33:49;2.00;2.00;0.00
65574;PMS5003;52216;54.942;73.394;2023-03-22T15:37:03;1.00;1.00;0.00
65574;PMS5003;52216;54.942;73.394;2023-03-22T15:40:25;0.00;0.00;0.00
65574;PMS5003;52216;54.942;73.394;2023-03-22T15:43:33;0.00;0.00;0.00
65574;PMS5003;52216;54.942;73.394;2023-03-22T15:50:00;2.00;1.00;0.00
65574;PMS5003;52216;54.942;73.394;2023-03-22T15:53:08;1.50;1.50;0.00
65574;PMS5003;52216;54.942;73.394;2023-03-22T15:56:19;2.00;1.00;0.00
65574;PMS5003;52216;54.942;73.394;2023-03-22T15:59:25;1.00;1.00;0.00
65574;PMS5003;52216;54.942;73.394;2023-03-22T16:02:32;1.00;1.00;0.00
65574;PMS5003;52216;54.942;73.394;2023-03-22T16:05:45;1.00;1.00;0.00
65574;PMS5003;52216;54.942;73.394;2023-03-22T16:08:47;3.00;2.00;0.00
65574;PMS5003;52216;54.942;73.394;2023-03-22T16:11:49;2.00;2.00;0.00
65574;PMS5003;52216;54.942;73.394;2023-03-22T16:14:53;2.00;2.00;0.00
65574;PMS5003;52216;54.942;73.394;2023-03-22T16:17:56;2.00;2.00;0.00
65574;PMS5003;52216;54.942;73.394;2023-03-22T16:20:59;5.00;3.00;0.00
65574;PMS5003;52216;54.942;73.394;2023-03-22T16:24:07;4.25;4.00;0.00
65574;PMS5003;52216;54.942;73.394;2023-03-22T16:27:15;4.00;4.00;0.00
65574;PMS5003;52216;54.942;73.394;2023-03-22T16:30:18;3.25;3.25;0.00
65574;PMS5003;52216;54.942;73.394;2023-03-22T16:33:21;4.00;2.25;0.00
65574;PMS5003;52216;54.942;73.394;2023-03-22T16:36:24;2.00;2.00;0.00
65574;PMS5003;52216;54.942;73.394;2023-03-22T16:39:28;2.00;2.00;0.00
65574;PMS5003;52216;54.942;73.394;2023-03-22T16:42:31;2.00;2.00;0.00
65574;PMS5003;52216;54.942;73.394;2023-03-22T16:45:38;2.00;2.00;0.00
65574;PMS5003;52216;54.942;73.394;2023-03-22T16:49:19;3.00;3.00;0.00
65574;PMS5003;52216;54.942;73.394;2023-03-22T16:52:27;3.00;2.00;1.00
65574;PMS5003;52216;54.942;73.394;2023-03-22T16:55:43;2.00;2.00;0.00
65574;PMS5003;52216;54.942;73.394;2023-03-22T16:58:50;1.00;0.00;0.00
65574;PMS5003;52216;54.942;73.394;2023-03-22T17:01:54;1.00;1.00;0.00
65574;PMS5003;52216;54.942;73.394;2023-03-22T17:04:57;1.00;1.00;0.00
65574;PMS5003;52216;54.942;73.394;2023-03-22T17:08:09;0.00;0.00;0.00
65574;PMS5003;52216;54.942;73.394;2023-03-22T17:11:22;1.00;0.00;0.00
65574;PMS5003;52216;54.942;73.394;2023-03-22T17:14:30;2.00;1.00;0.00
65574;PMS5003;52216;54.942;73.394;2023-03-22T17:17:33;1.00;0.00;0.00
65574;PMS5003;52216;54.942;73.394;2023-03-22T17:20:37;1.00;1.00;0.00
65574;PMS5003;52216;54.942;73.394;2023-03-22T17:23:50;1.00;1.00;0.00
65574;PMS5003;52216;54.942;73.394;2023-03-22T17:26:54;1.25;1.25;0.00
65574;PMS5003;52216;54.942;73.394;2023-03-22T17:30:07;1.00;1.00;0.00
65574;PMS5003;52216;54.942;73.394;2023-03-22T17:33:21;2.00;2.00;0.00
65574;PMS5003;52216;54.942;73.394;2023-03-22T17:36:29;2.00;2.00;0.00
65574;PMS5003;52216;54.942;73.394;2023-03-22T17:39:33;2.00;2.00;1.00
65574;PMS5003;52216;54.942;73.394;2023-03-22T17:42:38;1.00;1.00;0.00
65574;PMS5003;52216;54.942;73.394;2023-03-22T17:45:42;1.00;1.00;0.00
65574;PMS5003;52216;54.942;73.394;2023-03-22T17:48:45;2.00;1.50;0.00
65574;PMS5003;52216;54.942;73.394;2023-03-22T17:51:48;2.00;2.00;0.00
65574;PMS5003;52216;54.942;73.394;2023-03-22T17:54:51;2.00;1.00;0.00
65574;PMS5003;52216;54.942;73.394;2023-03-22T17:57:55;1.00;0.00;0.00
65574;PMS5003;52216;54.942;73.394;2023-03-22T18:01:02;1.00;1.00;0.00
65574;PMS5003;52216;54.942;73.394;2023-03-22T18:04:05;0.00;0.00;0.00
65574;PMS5003;52216;54.942;73.394;2023-03-22T18:07:10;0.00;0.00;0.00
65574;PMS5003;52216;54.942;73.394;2023-03-22T18:10:13;0.25;0.00;0.00
65574;PMS5003;52216;54.942;73.394;2023-03-22T18:13:17;0.00;0.00;0.00
65574;PMS5003;52216;54.942;73.394;2023-03-22T18:16:21;0.00;0.00;0.00
65574;PMS5003;52216;54.942;73.394;2023-03-22T18:19:24;0.00;0.00;0.00
65574;PMS5003;52216;54.942;73.394;2023-03-22T18:22:28;0.00;0.00;0.00
65574;PMS5003;52216;54.942;73.394;2023-03-22T18:25:35;1.00;1.00;0.00
65574;PMS5003;52216;54.942;73.394;2023-03-22T18:28:51;1.00;1.00;0.00
65574;PMS5003;52216;54.942;73.394;2023-03-22T18:31:59;1.00;1.00;0.00
65574;PMS5003;52216;54.942;73.394;2023-03-22T18:35:13;1.00;1.00;0.00
65574;PMS5003;52216;54.942;73.394;2023-03-22T18:38:16;1.00;1.00;0.00
65574;PMS5003;52216;54.942;73.394;2023-03-22T18:41:19;2.00;2.00;0.00
65574;PMS5003;52216;54.942;73.394;2023-03-22T18:44:23;0.00;0.00;0.00
65574;PMS5003;52216;54.942;73.394;2023-03-22T18:47:26;0.00;0.00;0.00
65574;PMS5003;52216;54.942;73.394;2023-03-22T18:50:29;0.00;0.00;0.00
65574;PMS5003;52216;54.942;73.394;2023-03-22T18:53:35;0.00;0.00;0.00
65574;PMS5003;52216;54.942;73.394;2023-03-22T18:56:48;0.00;0.00;0.00
65574;PMS5003;52216;54.942;73.394;2023-03-22T18:59:57;0.20;0.20;0.00
65574;PMS5003;52216;54.942;73.394;2023-03-22T19:03:00;1.50;0.00;0.00
65574;PMS5003;52216;54.942;73.394;2023-03-22T19:06:04;0.75;0.00;0.00
65574;PMS5003;52216;54.942;73.394;2023-03-22T19:09:08;1.00;0.00;0.00
65574;PMS5003;52216;54.942;73.394;2023-03-22T19:12:11;1.20;1.00;0.00
65574;PMS5003;52216;54.942;73.394;2023-03-22T19:15:14;0.00;0.00;0.00
65574;PMS5003;52216;54.942;73.394;2023-03-22T19:18:21;0.00;0.00;0.00
65574;PMS5003;52216;54.942;73.394;2023-03-22T19:21:24;1.25;0.50;0.00
65574;PMS5003;52216;54.942;73.394;2023-03-22T19:24:38;2.00;2.00;0.00